sensor_id;sensor_type;location;lat;lon;timestamp;pressure;altitude;pressure_sealevel;temperature;humidity
29247;BME280;16272;48.188;9.964;2023-04-26T00:01:13;95767.66;;;6.98;75.81
29247;BME280;16272;48.188;9.964;2023-04-26T00:03:39;95772.75;;;6.90;76.54
29247;BME280;16272;48.188;9.964;2023-04-26T00:06:04;95768.25;;;7.11;75.46
29247;BME280;16272;48.188;9.964;2023-04-26T00:08:34;95767.19;;;7.14;74.31
29247;BME280;16272;48.188;9.964;2023-04-26T00:10:59;95769.69;;;7.15;74.42
29247;BME280;16272;48.188;9.964;2023-04-26T00:13:24;95769.44;;;7.18;73.66
29247;BME280;16272;48.188;9.964;2023-04-26T00:15:50;95764.97;;;7.19;73.26
29247;BME280;16272;48.188;9.964;2023-04-26T00:18:15;95765.28;;;7.26;73.32
29247;BME280;16272;48.188;9.964;2023-04-26T00:20:41;95770.50;;;6.64;76.93
29247;BME280;16272;48.188;9.964;2023-04-26T00:23:07;95766.97;;;6.42;76.63
29247;BME280;16272;48.188;9.964;2023-04-26T00:25:34;95769.06;;;6.60;77.80
29247;BME280;16272;48.188;9.964;2023-04-26T00:28:00;95762.03;;;6.49;78.75
29247;BME280;16272;48.188;9.964;2023-04-26T00:30:26;95766.06;;;6.65;78.15
29247;BME280;16272;48.188;9.964;2023-04-26T00:32:51;95771.41;;;6.74;78.24
29247;BME280;16272;48.188;9.964;2023-04-26T00:35:17;95773.53;;;6.80;75.90
29247;BME280;16272;48.188;9.964;2023-04-26T00:37:42;95761.09;;;6.92;76.53
29247;BME280;16272;48.188;9.964;2023-04-26T00:40:08;95768.44;;;6.89;75.92
29247;BME280;16272;48.188;9.964;2023-04-26T00:42:33;95764.88;;;6.78;77.33
29247;BME280;16272;48.188;9.964;2023-04-26T00:44:58;95767.91;;;6.95;76.14
29247;BME280;16272;48.188;9.964;2023-04-26T00:47:24;95774.16;;;6.94;75.59
29247;BME280;16272;48.188;9.964;2023-04-26T00:49:50;95777.94;;;7.01;74.93
29247;BME280;16272;48.188;9.964;2023-04-26T00:52:16;95773.13;;;6.85;76.17
29247;BME280;16272;48.188;9.964;2023-04-26T00:54:42;95779.81;;;6.68;76.97
29247;BME280;16272;48.188;9.964;2023-04-26T00:57:07;95775.25;;;6.70;76.51
29247;BME280;16272;48.188;9.964;2023-04-26T00:59:34;95774.41;;;6.70;76.44
29247;BME280;16272;48.188;9.964;2023-04-26T01:02:02;95781.63;;;6.89;75.57
29247;BME280;16272;48.188;9.964;2023-04-26T01:04:27;95783.34;;;6.78;76.28
29247;BME280;16272;48.188;9.964;2023-04-26T01:06:54;95779.97;;;6.34;74.79
29247;BME280;16272;48.188;9.964;2023-04-26T01:09:20;95777.31;;;6.88;73.67
29247;BME280;16272;48.188;9.964;2023-04-26T01:11:47;95778.22;;;6.77;75.80
29247;BME280;16272;48.188;9.964;2023-04-26T01:14:14;95775.78;;;6.64;76.60
29247;BME280;16272;48.188;9.964;2023-04-26T01:16:40;95783.47;;;6.56;76.77
29247;BME280;16272;48.188;9.964;2023-04-26T01:19:09;95773.41;;;6.61;76.18
29247;BME280;16272;48.188;9.964;2023-04-26T01:21:36;95784.69;;;6.52;77.02
29247;BME280;16272;48.188;9.964;2023-04-26T01:24:02;95777.78;;;6.39;78.16
29247;BME280;16272;48.188;9.964;2023-04-26T01:26:28;95773.06;;;6.54;77.60
29247;BME280;16272;48.188;9.964;2023-04-26T01:28:53;95772.22;;;6.54;77.60
29247;BME280;16272;48.188;9.964;2023-04-26T01:31:18;95775.81;;;6.32;78.49
29247;BME280;16272;48.188;9.964;2023-04-26T01:33:43;95790.03;;;6.40;78.53
29247;BME280;16272;48.188;9.964;2023-04-26T01:36:09;95782.31;;;6.49;78.07
29247;BME280;16272;48.188;9.964;2023-04-26T01:38:35;95774.34;;;6.60;76.68
29247;BME280;16272;48.188;9.964;2023-04-26T01:41:00;95782.97;;;6.62;77.07
29247;BME280;16272;48.188;9.964;2023-04-26T01:43:25;95790.56;;;6.55;77.16
29247;BME280;16272;48.188;9.964;2023-04-26T01:45:51;95787.28;;;6.63;77.58
29247;BME280;16272;48.188;9.964;2023-04-26T01:48:17;95777.19;;;6.68;77.04
29247;BME280;16272;48.188;9.964;2023-04-26T01:50:42;95779.63;;;6.60;77.48
29247;BME280;16272;48.188;9.964;2023-04-26T01:53:07;95773.84;;;6.01;78.68
29247;BME280;16272;48.188;9.964;2023-04-26T01:55:33;95766.78;;;5.91;79.27
29247;BME280;16272;48.188;9.964;2023-04-26T01:57:58;95765.50;;;5.74;80.65
29247;BME280;16272;48.188;9.964;2023-04-26T02:00:24;95770.84;;;6.38;78.88
29247;BME280;16272;48.188;9.964;2023-04-26T02:02:53;95774.78;;;6.44;78.28
29247;BME280;16272;48.188;9.964;2023-04-26T02:05:19;95780.13;;;6.54;77.96
29247;BME280;16272;48.188;9.964;2023-04-26T02:07:44;95782.72;;;6.33;78.71
29247;BME280;16272;48.188;9.964;2023-04-26T02:10:10;95775.31;;;6.38;78.54
29247;BME280;16272;48.188;9.964;2023-04-26T02:12:35;95779.72;;;6.37;78.32
29247;BME280;16272;48.188;9.964;2023-04-26T02:15:00;95778.41;;;6.43;78.20
29247;BME280;16272;48.188;9.964;2023-04-26T02:17:26;95777.13;;;6.26;78.25
29247;BME280;16272;48.188;9.964;2023-04-26T02:19:52;95770.94;;;6.16;79.08
29247;BME280;16272;48.188;9.964;2023-04-26T02:22:17;95773.13;;;6.11;79.02
29247;BME280;16272;48.188;9.964;2023-04-26T02:24:42;95769.22;;;6.26;79.01
29247;BME280;16272;48.188;9.964;2023-04-26T02:27:08;95770.19;;;6.25;79.21
29247;BME280;16272;48.188;9.964;2023-04-26T02:29:33;95766.25;;;6.19;78.71
29247;BME280;16272;48.188;9.964;2023-04-26T02:32:00;95775.72;;;6.22;78.38
29247;BME280;16272;48.188;9.964;2023-04-26T02:34:26;95772.47;;;6.30;78.58
29247;BME280;16272;48.188;9.964;2023-04-26T02:36:51;95765.19;;;6.11;79.08
29247;BME280;16272;48.188;9.964;2023-04-26T02:39:16;95762.81;;;6.40;77.53
29247;BME280;16272;48.188;9.964;2023-04-26T02:41:42;95767.16;;;5.97;78.34
29247;BME280;16272;48.188;9.964;2023-04-26T02:44:07;95771.31;;;5.88;78.20
29247;BME280;16272;48.188;9.964;2023-04-26T02:46:33;95767.63;;;6.02;78.10
29247;BME280;16272;48.188;9.964;2023-04-26T02:48:58;95766.56;;;5.94;78.14
29247;BME280;16272;48.188;9.964;2023-04-26T02:51:23;95757.91;;;5.92;78.16
29247;BME280;16272;48.188;9.964;2023-04-26T02:53:48;95763.63;;;6.08;77.86
29247;BME280;16272;48.188;9.964;2023-04-26T02:56:14;95762.53;;;6.22;76.51
29247;BME280;16272;48.188;9.964;2023-04-26T02:58:40;95769.88;;;6.18;76.75
29247;BME280;16272;48.188;9.964;2023-04-26T03:01:05;95768.28;;;6.16;77.47
29247;BME280;16272;48.188;9.964;2023-04-26T03:03:31;95774.34;;;5.95;78.53
29247;BME280;16272;48.188;9.964;2023-04-26T03:05:56;95775.16;;;5.96;79.38
29247;BME280;16272;48.188;9.964;2023-04-26T03:08:22;95779.38;;;5.98;79.06
29247;BME280;16272;48.188;9.964;2023-04-26T03:10:47;95777.72;;;5.97;78.58
29247;BME280;16272;48.188;9.964;2023-04-26T03:13:12;95770.94;;;6.16;78.37
29247;BME280;16272;48.188;9.964;2023-04-26T03:15:38;95774.28;;;6.18;77.83
29247;BME280;16272;48.188;9.964;2023-04-26T03:18:03;95768.56;;;6.01;78.20
29247;BME280;16272;48.188;9.964;2023-04-26T03:20:28;95772.63;;;6.17;77.87
29247;BME280;16272;48.188;9.964;2023-04-26T03:22:54;95775.38;;;6.15;78.46
29247;BME280;16272;48.188;9.964;2023-04-26T03:25:19;95769.25;;;6.15;78.39
29247;BME280;16272;48.188;9.964;2023-04-26T03:27:45;95769.94;;;6.28;78.07
29247;BME280;16272;48.188;9.964;2023-04-26T03:30:11;95764.59;;;6.18;77.87
29247;BME280;16272;48.188;9.964;2023-04-26T03:32:37;95778.16;;;6.14;77.97
29247;BME280;16272;48.188;9.964;2023-04-26T03:35:03;95778.56;;;6.30;77.59
29247;BME280;16272;48.188;9.964;2023-04-26T03:37:28;95776.91;;;6.18;77.50
29247;BME280;16272;48.188;9.964;2023-04-26T03:39:53;95785.06;;;5.60;79.36
29247;BME280;16272;48.188;9.964;2023-04-26T03:42:19;95782.28;;;5.61;79.19
29247;BME280;16272;48.188;9.964;2023-04-26T03:44:45;95771.41;;;5.43;80.85
29247;BME280;16272;48.188;9.964;2023-04-26T03:47:11;95779.66;;;5.50;80.35
29247;BME280;16272;48.188;9.964;2023-04-26T03:49:36;95778.09;;;5.59;80.08
29247;BME280;16272;48.188;9.964;2023-04-26T03:52:01;95781.34;;;5.51;79.78
29247;BME280;16272;48.188;9.964;2023-04-26T03:54:27;95776.22;;;5.93;78.73
29247;BME280;16272;48.188;9.964;2023-04-26T03:56:52;95768.22;;;6.06;78.54
29247;BME280;16272;48.188;9.964;2023-04-26T03:59:19;95769.53;;;6.12;77.28
29247;BME280;16272;48.188;9.964;2023-04-26T04:01:44;95774.28;;;6.18;77.72
29247;BME280;16272;48.188;9.964;2023-04-26T04:04:09;95769.34;;;6.24;76.77
29247;BME280;16272;48.188;9.964;2023-04-26T04:06:35;95776.41;;;6.24;76.81
29247;BME280;16272;48.188;9.964;2023-04-26T04:09:01;95768.28;;;6.16;77.57
29247;BME280;16272;48.188;9.964;2023-04-26T04:11:27;95769.59;;;6.21;77.66
29247;BME280;16272;48.188;9.964;2023-04-26T04:13:53;95769.88;;;6.18;78.01
29247;BME280;16272;48.188;9.964;2023-04-26T04:16:18;95769.88;;;6.18;78.14
29247;BME280;16272;48.188;9.964;2023-04-26T04:18:43;95770.44;;;6.22;77.85
29247;BME280;16272;48.188;9.964;2023-04-26T04:21:08;95772.19;;;6.00;77.55
29247;BME280;16272;48.188;9.964;2023-04-26T04:23:35;95784.88;;;5.95;78.21
29247;BME280;16272;48.188;9.964;2023-04-26T04:26:00;95782.50;;;5.92;78.33
29247;BME280;16272;48.188;9.964;2023-04-26T04:28:27;95776.22;;;5.93;77.79
29247;BME280;16272;48.188;9.964;2023-04-26T04:30:53;95773.59;;;6.04;77.61
29247;BME280;16272;48.188;9.964;2023-04-26T04:33:21;95770.38;;;5.89;77.86
29247;BME280;16272;48.188;9.964;2023-04-26T04:35:46;95780.13;;;5.66;79.38
29247;BME280;16272;48.188;9.964;2023-04-26T04:38:11;95781.31;;;5.74;79.18
29247;BME280;16272;48.188;9.964;2023-04-26T04:40:37;95775.53;;;5.91;78.65
29247;BME280;16272;48.188;9.964;2023-04-26T04:43:02;95774.72;;;5.79;79.80
29247;BME280;16272;48.188;9.964;2023-04-26T04:45:27;95773.94;;;6.11;78.66
29247;BME280;16272;48.188;9.964;2023-04-26T04:47:53;95775.47;;;6.25;77.61
29247;BME280;16272;48.188;9.964;2023-04-26T04:50:18;95774.00;;;6.32;77.80
29247;BME280;16272;48.188;9.964;2023-04-26T04:52:44;95782.28;;;6.28;77.55
29247;BME280;16272;48.188;9.964;2023-04-26T04:55:09;95781.16;;;6.41;76.91
29247;BME280;16272;48.188;9.964;2023-04-26T04:57:35;95782.34;;;6.37;77.38
29247;BME280;16272;48.188;9.964;2023-04-26T05:00:00;95786.69;;;6.38;77.23
29247;BME280;16272;48.188;9.964;2023-04-26T05:02:34;95792.66;;;6.40;77.40
29247;BME280;16272;48.188;9.964;2023-04-26T05:04:59;95791.19;;;6.48;77.97
29247;BME280;16272;48.188;9.964;2023-04-26T05:07:26;95796.75;;;6.44;77.74
29247;BME280;16272;48.188;9.964;2023-04-26T05:09:51;95788.34;;;6.39;78.01
29247;BME280;16272;48.188;9.964;2023-04-26T05:12:16;95787.84;;;6.46;77.83
29247;BME280;16272;48.188;9.964;2023-04-26T05:14:41;95794.31;;;6.53;77.51
29247;BME280;16272;48.188;9.964;2023-04-26T05:17:07;95797.44;;;6.47;76.92
29247;BME280;16272;48.188;9.964;2023-04-26T05:19:32;95797.97;;;6.61;77.92
29247;BME280;16272;48.188;9.964;2023-04-26T05:21:57;95799.44;;;7.17;77.18
29247;BME280;16272;48.188;9.964;2023-04-26T05:24:23;95795.78;;;7.30;75.74
29247;BME280;16272;48.188;9.964;2023-04-26T05:26:48;95799.84;;;6.92;76.36
29247;BME280;16272;48.188;9.964;2023-04-26T05:29:14;95807.03;;;7.32;75.33
29247;BME280;16272;48.188;9.964;2023-04-26T05:31:40;95802.34;;;7.14;74.89
29247;BME280;16272;48.188;9.964;2023-04-26T05:34:05;95799.91;;;7.53;74.96
29247;BME280;16272;48.188;9.964;2023-04-26T05:36:31;95808.44;;;7.36;74.27
29247;BME280;16272;48.188;9.964;2023-04-26T05:38:56;95802.63;;;7.42;74.89
29247;BME280;16272;48.188;9.964;2023-04-26T05:41:22;95807.94;;;7.00;76.09
29247;BME280;16272;48.188;9.964;2023-04-26T05:43:47;95809.53;;;6.49;77.98
29247;BME280;16272;48.188;9.964;2023-04-26T05:46:12;95811.69;;;6.76;76.92
29247;BME280;16272;48.188;9.964;2023-04-26T05:48:38;95808.22;;;6.97;76.09
29247;BME280;16272;48.188;9.964;2023-04-26T05:51:03;95814.72;;;7.66;73.97
29247;BME280;16272;48.188;9.964;2023-04-26T05:53:28;95810.25;;;8.07;72.80
29247;BME280;16272;48.188;9.964;2023-04-26T05:55:54;95813.72;;;8.17;72.29
29247;BME280;16272;48.188;9.964;2023-04-26T05:58:19;95811.38;;;8.34;72.79
29247;BME280;16272;48.188;9.964;2023-04-26T06:00:45;95821.34;;;8.51;71.41
29247;BME280;16272;48.188;9.964;2023-04-26T06:03:10;95824.19;;;8.28;71.63
29247;BME280;16272;48.188;9.964;2023-04-26T06:05:36;95814.69;;;8.16;70.80
29247;BME280;16272;48.188;9.964;2023-04-26T06:08:05;95816.53;;;8.35;70.99
29247;BME280;16272;48.188;9.964;2023-04-26T06:10:31;95819.94;;;8.57;70.16
29247;BME280;16272;48.188;9.964;2023-04-26T06:12:56;95828.94;;;8.35;71.06
29247;BME280;16272;48.188;9.964;2023-04-26T06:15:21;95822.56;;;7.97;72.41
29247;BME280;16272;48.188;9.964;2023-04-26T06:17:47;95830.06;;;7.51;73.47
29247;BME280;16272;48.188;9.964;2023-04-26T06:20:12;95823.63;;;8.15;73.16
29247;BME280;16272;48.188;9.964;2023-04-26T06:22:37;95830.28;;;8.09;72.02
29247;BME280;16272;48.188;9.964;2023-04-26T06:25:03;95821.22;;;8.62;71.74
29247;BME280;16272;48.188;9.964;2023-04-26T06:27:29;95825.78;;;8.60;70.80
29247;BME280;16272;48.188;9.964;2023-04-26T06:29:54;95823.00;;;8.52;70.42
29247;BME280;16272;48.188;9.964;2023-04-26T06:32:20;95816.13;;;8.40;71.15
29247;BME280;16272;48.188;9.964;2023-04-26T06:34:45;95815.72;;;8.93;70.09
29247;BME280;16272;48.188;9.964;2023-04-26T06:37:11;95826.03;;;9.16;67.57
29247;BME280;16272;48.188;9.964;2023-04-26T06:39:36;95827.38;;;9.40;65.53
29247;BME280;16272;48.188;9.964;2023-04-26T06:42:03;95822.00;;;9.59;66.38
29247;BME280;16272;48.188;9.964;2023-04-26T06:44:28;95831.34;;;9.06;68.88
29247;BME280;16272;48.188;9.964;2023-04-26T06:46:54;95832.47;;;8.94;68.35
29247;BME280;16272;48.188;9.964;2023-04-26T06:49:20;95834.94;;;9.25;66.35
29247;BME280;16272;48.188;9.964;2023-04-26T06:51:45;95831.84;;;9.39;64.20
29247;BME280;16272;48.188;9.964;2023-04-26T06:54:11;95830.88;;;9.78;64.75
29247;BME280;16272;48.188;9.964;2023-04-26T06:56:36;95828.00;;;9.14;67.65
29247;BME280;16272;48.188;9.964;2023-04-26T06:59:04;95826.31;;;9.13;68.59
29247;BME280;16272;48.188;9.964;2023-04-26T07:01:30;95828.47;;;9.47;69.01
29247;BME280;16272;48.188;9.964;2023-04-26T07:03:58;95825.63;;;9.01;69.31
29247;BME280;16272;48.188;9.964;2023-04-26T07:06:25;95831.06;;;8.80;64.67
29247;BME280;16272;48.188;9.964;2023-04-26T07:08:50;95825.22;;;9.06;62.68
29247;BME280;16272;48.188;9.964;2023-04-26T07:11:16;95830.03;;;9.40;66.18
29247;BME280;16272;48.188;9.964;2023-04-26T07:13:41;95837.13;;;9.39;64.95
29247;BME280;16272;48.188;9.964;2023-04-26T07:16:06;95831.63;;;8.54;67.98
29247;BME280;16272;48.188;9.964;2023-04-26T07:18:31;95830.25;;;8.50;68.14
29247;BME280;16272;48.188;9.964;2023-04-26T07:20:57;95836.09;;;8.54;68.72
29247;BME280;16272;48.188;9.964;2023-04-26T07:23:22;95841.59;;;8.41;68.50
29247;BME280;16272;48.188;9.964;2023-04-26T07:25:47;95829.97;;;8.63;68.38
29247;BME280;16272;48.188;9.964;2023-04-26T07:28:13;95843.06;;;9.04;69.81
29247;BME280;16272;48.188;9.964;2023-04-26T07:30:38;95827.75;;;8.58;66.69
29247;BME280;16272;48.188;9.964;2023-04-26T07:33:04;95831.34;;;8.77;65.98
29247;BME280;16272;48.188;9.964;2023-04-26T07:35:29;95832.56;;;9.31;63.90
29247;BME280;16272;48.188;9.964;2023-04-26T07:37:55;95827.38;;;9.40;63.81
29247;BME280;16272;48.188;9.964;2023-04-26T07:40:20;95823.56;;;10.17;61.88
29247;BME280;16272;48.188;9.964;2023-04-26T07:42:48;95820.16;;;10.53;62.09
29247;BME280;16272;48.188;9.964;2023-04-26T07:45:14;95823.16;;;9.47;64.28
29247;BME280;16272;48.188;9.964;2023-04-26T07:47:40;95819.03;;;10.00;61.60
29247;BME280;16272;48.188;9.964;2023-04-26T07:50:05;95826.34;;;9.60;61.36
29247;BME280;16272;48.188;9.964;2023-04-26T07:52:31;95823.78;;;10.52;63.71
29247;BME280;16272;48.188;9.964;2023-04-26T07:54:56;95827.66;;;9.36;62.75
29247;BME280;16272;48.188;9.964;2023-04-26T07:57:21;95812.34;;;10.51;62.02
29247;BME280;16272;48.188;9.964;2023-04-26T07:59:47;95818.59;;;9.77;61.08
29247;BME280;16272;48.188;9.964;2023-04-26T08:02:12;95815.53;;;9.71;61.90
29247;BME280;16272;48.188;9.964;2023-04-26T08:04:37;95817.97;;;10.20;62.48
29247;BME280;16272;48.188;9.964;2023-04-26T08:07:03;95816.72;;;10.15;58.47
29247;BME280;16272;48.188;9.964;2023-04-26T08:09:28;95820.06;;;9.61;61.19
29247;BME280;16272;48.188;9.964;2023-04-26T08:11:55;95824.09;;;9.55;62.85
29247;BME280;16272;48.188;9.964;2023-04-26T08:14:20;95828.28;;;9.96;63.04
29247;BME280;16272;48.188;9.964;2023-04-26T08:16:45;95821.34;;;9.85;62.74
29247;BME280;16272;48.188;9.964;2023-04-26T08:19:11;95820.47;;;9.94;63.98
29247;BME280;16272;48.188;9.964;2023-04-26T08:21:36;95819.63;;;9.93;62.54
29247;BME280;16272;48.188;9.964;2023-04-26T08:24:02;95823.53;;;9.99;63.91
29247;BME280;16272;48.188;9.964;2023-04-26T08:26:27;95818.09;;;10.46;58.24
29247;BME280;16272;48.188;9.964;2023-04-26T08:28:53;95817.00;;;11.11;60.97
29247;BME280;16272;48.188;9.964;2023-04-26T08:31:18;95824.66;;;11.14;59.88
29247;BME280;16272;48.188;9.964;2023-04-26T08:33:44;95826.25;;;10.63;59.75
29247;BME280;16272;48.188;9.964;2023-04-26T08:36:09;95819.56;;;12.00;60.46
29247;BME280;16272;48.188;9.964;2023-04-26T08:38:34;95815.56;;;11.95;57.16
29247;BME280;16272;48.188;9.964;2023-04-26T08:41:01;95817.66;;;10.69;56.01
29247;BME280;16272;48.188;9.964;2023-04-26T08:43:27;95824.94;;;10.67;58.12
29247;BME280;16272;48.188;9.964;2023-04-26T08:45:53;95819.53;;;10.95;58.23
29247;BME280;16272;48.188;9.964;2023-04-26T08:48:19;95822.34;;;10.93;58.71
29247;BME280;16272;48.188;9.964;2023-04-26T08:50:46;95819.97;;;11.08;59.73
29247;BME280;16272;48.188;9.964;2023-04-26T08:53:16;95820.53;;;11.12;58.70
29247;BME280;16272;48.188;9.964;2023-04-26T08:55:48;95823.59;;;11.25;55.49
29247;BME280;16272;48.188;9.964;2023-04-26T08:58:13;95834.63;;;9.37;58.69
29247;BME280;16272;48.188;9.964;2023-04-26T09:00:44;95824.19;;;10.57;62.08
29247;BME280;16272;48.188;9.964;2023-04-26T09:03:10;95826.28;;;11.07;58.74
29247;BME280;16272;48.188;9.964;2023-04-26T09:05:38;95829.06;;;11.24;60.46
29247;BME280;16272;48.188;9.964;2023-04-26T09:08:05;95821.78;;;11.26;54.66
29247;BME280;16272;48.188;9.964;2023-04-26T09:10:31;95823.72;;;10.79;57.86
29247;BME280;16272;48.188;9.964;2023-04-26T09:12:57;95822.56;;;11.44;54.88
29247;BME280;16272;48.188;9.964;2023-04-26T09:15:24;95815.72;;;12.37;53.27
29247;BME280;16272;48.188;9.964;2023-04-26T09:17:51;95807.09;;;14.45;55.68
29247;BME280;16272;48.188;9.964;2023-04-26T09:20:26;95803.25;;;14.48;49.19
29247;BME280;16272;48.188;9.964;2023-04-26T09:23:02;95816.69;;;13.84;56.23
29247;BME280;16272;48.188;9.964;2023-04-26T09:25:29;95814.63;;;13.05;50.72
29247;BME280;16272;48.188;9.964;2023-04-26T09:27:55;95818.38;;;12.45;53.31
29247;BME280;16272;48.188;9.964;2023-04-26T09:30:21;95809.97;;;12.07;55.66
29247;BME280;16272;48.188;9.964;2023-04-26T09:32:56;95825.41;;;11.77;54.95
29247;BME280;16272;48.188;9.964;2023-04-26T09:35:32;95816.03;;;11.38;55.19
29247;BME280;16272;48.188;9.964;2023-04-26T09:40:26;95814.41;;;11.72;54.46
29247;BME280;16272;48.188;9.964;2023-04-26T09:43:05;95811.94;;;12.13;55.78
29247;BME280;16272;48.188;9.964;2023-04-26T09:45:40;95804.81;;;13.14;52.88
29247;BME280;16272;48.188;9.964;2023-04-26T09:48:20;95801.50;;;14.32;50.29
29247;BME280;16272;48.188;9.964;2023-04-26T09:50:52;95802.00;;;14.59;49.79
29247;BME280;16272;48.188;9.964;2023-04-26T09:53:41;95799.13;;;12.92;49.19
29247;BME280;16272;48.188;9.964;2023-04-26T09:56:14;95802.03;;;12.23;48.40
29247;BME280;16272;48.188;9.964;2023-04-26T10:01:09;95811.19;;;12.29;54.97
29247;BME280;16272;48.188;9.964;2023-04-26T10:03:36;95807.25;;;12.49;58.88
29247;BME280;16272;48.188;9.964;2023-04-26T10:06:02;95804.13;;;13.28;52.25
29247;BME280;16272;48.188;9.964;2023-04-26T10:08:30;95799.25;;;14.12;50.04
29247;BME280;16272;48.188;9.964;2023-04-26T10:10:55;95805.59;;;13.55;45.70
29247;BME280;16272;48.188;9.964;2023-04-26T10:13:21;95798.97;;;13.02;49.19
29247;BME280;16272;48.188;9.964;2023-04-26T10:15:46;95796.38;;;11.92;48.64
29247;BME280;16272;48.188;9.964;2023-04-26T10:18:12;95805.63;;;11.45;49.59
29247;BME280;16272;48.188;9.964;2023-04-26T10:20:40;95795.91;;;11.97;51.17
29247;BME280;16272;48.188;9.964;2023-04-26T10:23:21;95795.50;;;11.49;50.59
29247;BME280;16272;48.188;9.964;2023-04-26T10:25:50;95787.56;;;11.31;50.81
29247;BME280;16272;48.188;9.964;2023-04-26T10:28:17;95779.09;;;13.29;52.66
29247;BME280;16272;48.188;9.964;2023-04-26T10:33:21;95763.63;;;14.60;48.51
29247;BME280;16272;48.188;9.964;2023-04-26T10:36:19;95771.63;;;13.97;42.12
29247;BME280;16272;48.188;9.964;2023-04-26T10:39:17;95759.66;;;14.16;51.54
29247;BME280;16272;48.188;9.964;2023-04-26T10:41:45;95758.75;;;14.63;47.52
29247;BME280;16272;48.188;9.964;2023-04-26T10:44:39;95754.47;;;14.77;50.06
29247;BME280;16272;48.188;9.964;2023-04-26T10:47:06;95757.81;;;13.85;51.04
29247;BME280;16272;48.188;9.964;2023-04-26T10:49:44;95750.78;;;14.24;46.17
29247;BME280;16272;48.188;9.964;2023-04-26T10:52:12;95747.03;;;13.62;46.69
29247;BME280;16272;48.188;9.964;2023-04-26T10:54:57;95748.41;;;15.21;46.39
29247;BME280;16272;48.188;9.964;2023-04-26T10:57:48;95740.53;;;14.04;46.67
29247;BME280;16272;48.188;9.964;2023-04-26T11:00:16;95738.69;;;14.36;48.17
29247;BME280;16272;48.188;9.964;2023-04-26T11:10:29;95734.84;;;14.07;44.69
29247;BME280;16272;48.188;9.964;2023-04-26T11:13:02;95730.63;;;15.73;41.86
29247;BME280;16272;48.188;9.964;2023-04-26T11:15:29;95727.88;;;15.52;43.52
29247;BME280;16272;48.188;9.964;2023-04-26T11:17:55;95734.03;;;15.22;39.59
29247;BME280;16272;48.188;9.964;2023-04-26T11:20:20;95732.88;;;15.02;39.37
29247;BME280;16272;48.188;9.964;2023-04-26T11:22:46;95732.25;;;14.22;41.65
29247;BME280;16272;48.188;9.964;2023-04-26T11:25:12;95734.25;;;14.51;44.10
29247;BME280;16272;48.188;9.964;2023-04-26T11:27:38;95731.47;;;14.45;41.29
29247;BME280;16272;48.188;9.964;2023-04-26T11:30:04;95725.63;;;14.41;41.52
29247;BME280;16272;48.188;9.964;2023-04-26T11:32:29;95725.13;;;14.14;39.72
29247;BME280;16272;48.188;9.964;2023-04-26T11:34:59;95727.72;;;14.00;42.93
29247;BME280;16272;48.188;9.964;2023-04-26T11:37:24;95727.63;;;14.16;40.14
29247;BME280;16272;48.188;9.964;2023-04-26T11:39:50;95733.00;;;13.76;46.67
29247;BME280;16272;48.188;9.964;2023-04-26T11:42:15;95745.78;;;13.25;40.40
29247;BME280;16272;48.188;9.964;2023-04-26T11:44:41;95737.25;;;13.46;45.25
29247;BME280;16272;48.188;9.964;2023-04-26T11:47:07;95735.72;;;14.54;42.25
29247;BME280;16272;48.188;9.964;2023-04-26T11:49:35;95727.91;;;14.76;39.95
29247;BME280;16272;48.188;9.964;2023-04-26T11:52:01;95728.88;;;14.60;36.60
29247;BME280;16272;48.188;9.964;2023-04-26T11:54:33;95724.81;;;14.87;46.13
29247;BME280;16272;48.188;9.964;2023-04-26T11:56:59;95730.25;;;14.47;45.52
29247;BME280;16272;48.188;9.964;2023-04-26T11:59:28;95722.00;;;14.34;46.10
29247;BME280;16272;48.188;9.964;2023-04-26T12:01:55;95709.41;;;14.74;46.79
29247;BME280;16272;48.188;9.964;2023-04-26T12:04:28;95708.34;;;15.13;45.41
29247;BME280;16272;48.188;9.964;2023-04-26T12:06:53;95716.19;;;13.99;41.47
29247;BME280;16272;48.188;9.964;2023-04-26T12:09:40;95717.09;;;14.69;41.76
29247;BME280;16272;48.188;9.964;2023-04-26T12:12:08;95707.94;;;14.86;42.84
29247;BME280;16272;48.188;9.964;2023-04-26T12:14:39;95711.22;;;13.96;48.62
29247;BME280;16272;48.188;9.964;2023-04-26T12:17:05;95699.22;;;16.12;41.71
29247;BME280;16272;48.188;9.964;2023-04-26T12:19:38;95714.97;;;14.87;36.93
29247;BME280;16272;48.188;9.964;2023-04-26T12:22:05;95711.47;;;15.02;40.41
29247;BME280;16272;48.188;9.964;2023-04-26T12:24:31;95709.75;;;13.85;49.49
29247;BME280;16272;48.188;9.964;2023-04-26T12:26:59;95702.25;;;14.43;47.92
29247;BME280;16272;48.188;9.964;2023-04-26T12:29:25;95702.84;;;14.30;46.00
29247;BME280;16272;48.188;9.964;2023-04-26T12:31:52;95700.06;;;14.70;42.75
29247;BME280;16272;48.188;9.964;2023-04-26T12:34:17;95697.09;;;14.65;41.05
29247;BME280;16272;48.188;9.964;2023-04-26T12:36:42;95697.28;;;14.63;47.23
29247;BME280;16272;48.188;9.964;2023-04-26T12:39:12;95680.31;;;15.69;45.12
29247;BME280;16272;48.188;9.964;2023-04-26T12:41:40;95664.66;;;16.39;41.32
29247;BME280;16272;48.188;9.964;2023-04-26T12:44:07;95674.72;;;16.15;39.54
29247;BME280;16272;48.188;9.964;2023-04-26T12:46:33;95667.69;;;15.92;40.74
29247;BME280;16272;48.188;9.964;2023-04-26T12:48:58;95666.19;;;15.90;41.85
29247;BME280;16272;48.188;9.964;2023-04-26T12:51:23;95668.84;;;16.05;39.32
29247;BME280;16272;48.188;9.964;2023-04-26T12:53:49;95672.50;;;16.40;39.34
29247;BME280;16272;48.188;9.964;2023-04-26T12:56:15;95671.25;;;15.99;40.93
29247;BME280;16272;48.188;9.964;2023-04-26T12:58:40;95672.56;;;16.68;40.63
29247;BME280;16272;48.188;9.964;2023-04-26T13:01:06;95679.78;;;14.52;40.26
29247;BME280;16272;48.188;9.964;2023-04-26T13:03:31;95678.72;;;14.15;41.59
29247;BME280;16272;48.188;9.964;2023-04-26T13:05:56;95679.69;;;14.69;43.47
29247;BME280;16272;48.188;9.964;2023-04-26T13:08:22;95678.13;;;14.05;43.56
29247;BME280;16272;48.188;9.964;2023-04-26T13:10:48;95673.25;;;15.76;41.62
29247;BME280;16272;48.188;9.964;2023-04-26T13:13:14;95664.41;;;16.55;39.33
29247;BME280;16272;48.188;9.964;2023-04-26T13:15:39;95660.03;;;15.59;40.00
29247;BME280;16272;48.188;9.964;2023-04-26T13:18:04;95674.50;;;15.05;40.97
29247;BME280;16272;48.188;9.964;2023-04-26T13:20:30;95664.97;;;16.29;42.54